Time;durP1;ratioP1;P1;durP2;ratioP2;P2;SDS_P1;SDS_P2;PMS_P1;PMS_P2;Temp;Humidity;BMP_temperature;BMP_pressure;BME280_temperature;BME280_humidity;BME280_pressure;Samples;Min_cycle;Max_cycle;Signal;HPM_P1;HPM_P2
2022/12/18 00:01:22;;;;;;;40.80;27.30;;;;;;;-1.65;89.34;102711.28;5096763;28;20036;-52
2022/12/18 00:03:51;;;;;;;42.80;27.58;;;;;;;-1.62;89.15;102713.69;5095410;28;20051;-53
2022/12/18 00:06:19;;;;;;;44.55;28.40;;;;;;;-1.63;88.07;102717.34;5064125;28;20049;-51
2022/12/18 00:08:48;;;;;;;44.13;28.02;;;;;;;-1.73;87.45;102741.41;5088396;28;20048;-50
2022/12/18 00:11:19;;;;;;;41.95;27.38;;;;;;;-1.85;87.74;102743.34;5078448;28;20044;-55
2022/12/18 00:13:47;;;;;;;40.60;28.10;;;;;;;-1.93;87.81;102732.50;5095579;28;20513;-50
2022/12/18 00:16:21;;;;;;;42.10;28.10;;;;;;;-2.03;88.58;102731.66;5096634;28;20391;-52
2022/12/18 00:18:56;;;;;;;42.00;26.85;;;;;;;-2.08;88.77;102729.38;5094336;28;20055;-54
2022/12/18 00:21:23;;;;;;;41.25;26.40;;;;;;;-2.02;89.89;102722.63;5095723;28;20056;-50
2022/12/18 00:23:51;;;;;;;39.25;26.50;;;;;;;-1.93;89.93;102716.47;5080709;28;20086;-50
2022/12/18 00:26:39;;;;;;;45.03;28.65;;;;;;;-1.82;89.26;102718.19;5088401;28;20044;-51
2022/12/18 00:29:13;;;;;;;44.20;27.83;;;;;;;-1.86;88.52;102714.94;5090778;28;20051;-52
2022/12/18 00:31:42;;;;;;;44.72;28.02;;;;;;;-1.97;88.34;102713.25;5096014;28;20040;-49
2022/12/18 00:34:11;;;;;;;39.95;26.85;;;;;;;-2.04;87.87;102713.94;5096104;28;20093;-51
2022/12/18 00:36:40;;;;;;;39.97;25.98;;;;;;;-2.09;88.55;102708.16;5095146;28;20044;-53
2022/12/18 00:39:09;;;;;;;40.28;25.80;;;;;;;-2.07;88.46;102706.19;5093392;28;20105;-51
2022/12/18 00:44:23;;;;;;;;;;;;;;;-1.87;89.20;102699.06;5095792;28;20047;-47
2022/12/18 00:46:51;;;;;;;39.65;26.90;;;;;;;-1.87;87.64;102709.75;5096427;28;19923;-50
2022/12/18 00:49:19;;;;;;;42.70;27.83;;;;;;;-1.93;87.49;102708.47;5094724;28;20072;-49
2022/12/18 00:51:47;;;;;;;41.45;27.48;;;;;;;-2.03;86.80;102715.63;5095280;28;20403;-51
2022/12/18 00:54:16;;;;;;;42.05;27.95;;;;;;;-2.11;86.91;102708.31;5094163;28;20379;-52
2022/12/18 00:56:44;;;;;;;39.28;27.08;;;;;;;-2.14;87.08;102705.91;5094520;28;20044;-52
2022/12/18 00:59:17;;;;;;;42.20;26.88;;;;;;;-2.12;87.39;102703.94;5094390;28;20059;-53
2022/12/18 01:01:45;;;;;;;39.97;26.58;;;;;;;-2.13;87.34;102698.75;5084570;28;20048;-51
2022/12/18 01:04:14;;;;;;;42.13;25.92;;;;;;;-2.17;87.01;102709.69;5092521;28;20056;-51
2022/12/18 01:06:45;;;;;;;42.53;26.77;;;;;;;-2.15;87.16;102701.53;5074377;28;20032;-48
2022/12/18 01:09:12;;;;;;;40.33;26.90;;;;;;;-2.08;87.54;102701.84;5085656;28;20044;-50
2022/12/18 01:11:40;;;;;;;39.83;26.35;;;;;;;-2.01;87.58;102708.31;5093254;28;20036;-49
2022/12/18 01:14:08;;;;;;;38.47;25.38;;;;;;;-2.02;86.71;102719.97;5095275;28;20044;-49
2022/12/18 01:16:37;;;;;;;41.42;27.05;;;;;;;-2.08;85.74;102729.38;5095301;28;20044;-53
2022/12/18 01:19:05;;;;;;;39.28;25.05;;;;;;;-2.20;85.75;102725.16;5093969;28;20044;-51
2022/12/18 01:21:33;;;;;;;39.88;25.52;;;;;;;-2.25;86.06;102733.56;5093850;28;20048;-52
2022/12/18 01:24:04;;;;;;;37.47;24.00;;;;;;;-2.23;86.70;102736.09;5077237;28;20033;-53
2022/12/18 01:26:32;;;;;;;35.90;24.45;;;;;;;-2.19;86.59;102725.03;5082127;28;20029;-52
2022/12/18 01:28:59;;;;;;;40.20;24.75;;;;;;;-2.12;86.35;102721.78;5076645;28;20530;-51
2022/12/18 01:31:30;;;;;;;39.35;25.17;;;;;;;-2.08;86.21;102723.19;5093275;28;20039;-50
2022/12/18 01:34:00;;;;;;;36.05;24.13;;;;;;;-2.11;85.66;102731.50;5076788;28;20106;-51
2022/12/18 01:36:30;;;;;;;39.38;25.52;;;;;;;-2.09;85.42;102721.50;5081311;28;20032;-50
2022/12/18 01:39:00;;;;;;;34.17;23.73;;;;;;;-2.10;85.63;102717.16;5093694;28;20040;-49
2022/12/18 01:44:56;;;;;;;34.05;23.27;;;;;;;-2.03;85.89;102715.63;5089220;28;20040;-51
2022/12/18 01:47:43;;;;;;;34.10;23.88;;;;;;;-2.05;84.55;102710.41;5093925;28;20044;-51
2022/12/18 01:50:20;;;;;;;34.85;24.05;;;;;;;-2.18;84.30;102702.66;5093621;28;20521;-53
2022/12/18 01:52:53;;;;;;;35.20;24.03;;;;;;;-2.25;85.29;102706.84;5092428;28;20121;-51
2022/12/18 01:55:23;;;;;;;33.53;23.35;;;;;;;-2.21;85.58;102704.78;5073598;28;20564;-52
2022/12/18 01:57:55;;;;;;;32.17;22.02;;;;;;;-2.19;85.43;102700.97;5052687;28;20411;-55
2022/12/18 02:00:24;;;;;;;31.77;22.73;;;;;;;-2.20;84.86;102707.28;5093855;28;20044;-52
2022/12/18 02:02:52;;;;;;;34.28;22.98;;;;;;;-2.22;84.68;102709.25;5073952;28;20044;-50
2022/12/18 02:05:42;;;;;;;33.53;22.08;;;;;;;-2.26;84.47;102715.00;5093467;28;20063;-52
2022/12/18 02:08:30;;;;;;;31.90;22.15;;;;;;;-2.31;84.34;102711.88;5093878;28;20461;-48
2022/12/18 02:11:25;;;;;;;32.30;22.83;;;;;;;-2.41;83.90;102710.03;5094355;28;20040;-53
2022/12/18 02:14:10;;;;;;;33.90;22.58;;;;;;;-2.53;83.90;102704.94;5093369;28;20039;-53
2022/12/18 02:16:39;;;;;;;35.00;22.27;;;;;;;-2.60;84.92;102708.16;5076909;28;20079;-52
2022/12/18 02:19:31;;;;;;;32.55;22.38;;;;;;;-2.59;85.53;102704.50;5075683;28;20058;-51
2022/12/18 02:22:06;;;;;;;32.35;20.20;;;;;;;-2.62;85.19;102712.78;5092203;28;20052;-52
2022/12/18 02:24:38;;;;;;;29.42;20.33;;;;;;;-2.62;85.64;102710.13;5087141;28;20491;-51
2022/12/18 02:27:06;;;;;;;32.95;20.88;;;;;;;-2.57;85.43;102717.72;5072376;28;20041;-51
2022/12/18 02:29:48;;;;;;;30.42;20.58;;;;;;;-2.65;84.25;102713.03;5090879;28;20036;-50
2022/12/18 02:32:51;;;;;;;29.77;21.20;;;;;;;-2.78;84.54;102710.59;5103878;28;20082;-53
2022/12/18 02:35:26;;;;;;;33.40;22.30;;;;;;;-2.81;85.54;102708.22;5081239;28;20438;-55
2022/12/18 02:37:57;;;;;;;30.52;21.00;;;;;;;-2.79;85.87;102708.94;5106437;28;20050;-55
2022/12/18 02:40:27;;;;;;;30.48;21.15;;;;;;;-2.70;86.49;102701.94;5074706;28;20044;-53
2022/12/18 02:42:55;;;;;;;28.90;20.27;;;;;;;-2.62;85.77;102699.44;5088092;28;20127;-52
2022/12/18 02:45:24;;;;;;;30.20;19.05;;;;;;;-2.58;85.40;102695.50;5109741;28;20035;-54
2022/12/18 02:47:52;;;;;;;26.75;19.42;;;;;;;-2.57;84.97;102704.38;5091972;28;20115;-52
2022/12/18 02:50:32;;;;;;;28.63;19.83;;;;;;;-2.56;84.58;102692.72;5076193;28;20062;-51
2022/12/18 02:53:30;;;;;;;28.20;19.55;;;;;;;-2.54;84.69;102692.59;5092363;28;20035;-55
2022/12/18 02:56:06;;;;;;;27.75;19.90;;;;;;;-2.62;83.87;102683.44;5075365;28;20072;-53
2022/12/18 02:58:36;;;;;;;29.48;18.48;;;;;;;-2.74;84.09;102689.84;5062652;28;20039;-55
2022/12/18 03:01:18;;;;;;;27.42;19.15;;;;;;;-2.74;84.54;102681.84;5092326;28;20040;-50
2022/12/18 03:03:55;;;;;;;26.90;18.35;;;;;;;-2.80;84.21;102679.72;5067570;28;20490;-51
2022/12/18 03:06:30;;;;;;;28.35;19.70;;;;;;;-2.87;84.34;102687.38;5091284;28;20482;-54
2022/12/18 03:09:00;;;;;;;27.20;17.73;;;;;;;-2.90;84.91;102686.84;5075405;28;20102;-53
2022/12/18 03:14:21;;;;;;;26.17;18.38;;;;;;;-2.89;84.38;102691.16;5082120;28;20040;-55
2022/12/18 03:16:53;;;;;;;26.05;17.90;;;;;;;-2.99;84.77;102680.47;5075703;28;20043;-55
2022/12/18 03:19:22;;;;;;;30.15;19.27;;;;;;;-3.08;84.40;102676.78;5075457;28;20070;-54
2022/12/18 03:21:56;;;;;;;25.80;17.88;;;;;;;-3.17;84.83;102677.56;5060914;28;20056;-50
2022/12/18 03:24:27;;;;;;;26.67;18.90;;;;;;;-3.26;85.05;102679.19;5091532;28;20123;-53
2022/12/18 03:27:02;;;;;;;27.30;18.65;;;;;;;-3.31;85.31;102677.91;5091497;28;20486;-52
2022/12/18 03:29:42;;;;;;;26.08;17.95;;;;;;;-3.31;85.66;102672.56;5091725;28;20040;-54
2022/12/18 03:32:24;;;;;;;24.50;16.95;;;;;;;-3.34;85.61;102675.47;5067046;28;20036;-48
2022/12/18 03:34:52;;;;;;;24.83;16.98;;;;;;;-3.35;85.99;102679.97;5075086;28;20040;-52
2022/12/18 03:37:22;;;;;;;25.92;17.52;;;;;;;-3.34;86.09;102667.47;5091883;28;20032;-50
2022/12/18 03:39:51;;;;;;;24.05;17.50;;;;;;;-3.34;86.36;102664.81;5091954;28;20044;-55
2022/12/18 03:42:25;;;;;;;25.75;17.15;;;;;;;-3.36;86.32;102667.63;5090402;28;20040;-52
2022/12/18 03:45:18;;;;;;;24.17;16.95;;;;;;;-3.35;86.12;102663.16;5075967;28;20127;-50
2022/12/18 03:47:52;;;;;;;25.02;16.98;;;;;;;-3.31;86.13;102659.25;5072982;28;20094;-52
2022/12/18 03:50:40;;;;;;;25.25;17.23;;;;;;;-3.25;86.10;102653.38;5107797;28;20044;-51
2022/12/18 03:53:55;;;;;;;25.55;16.35;;;;;;;-3.26;85.56;102646.38;5089002;28;20039;-52
2022/12/18 03:56:31;;;;;;;24.10;16.73;;;;;;;-3.27;85.46;102639.34;5066969;28;20040;-54
2022/12/18 03:59:01;;;;;;;24.88;16.63;;;;;;;-3.29;86.04;102642.16;5071992;28;20037;-53
2022/12/18 04:01:37;;;;;;;25.20;16.30;;;;;;;-3.23;86.34;102646.09;5073498;28;20393;-54
2022/12/18 04:04:06;;;;;;;22.10;15.43;;;;;;;-3.14;85.83;102642.66;5080413;28;20044;-54
2022/12/18 04:06:36;;;;;;;22.38;14.88;;;;;;;-3.04;85.52;102640.03;5073765;28;20067;-53
2022/12/18 04:09:05;;;;;;;23.25;15.55;;;;;;;-3.01;84.90;102637.06;5087990;28;20045;-53
2022/12/18 04:11:37;;;;;;;24.00;15.48;;;;;;;-2.98;84.57;102631.50;5089182;28;20486;-52
2022/12/18 04:14:05;;;;;;;21.13;14.88;;;;;;;-3.01;84.79;102627.28;5091685;28;20482;-52
2022/12/18 04:16:34;;;;;;;22.42;14.27;;;;;;;-3.09;83.63;102626.25;5091584;28;20176;-50
2022/12/18 04:19:05;;;;;;;21.05;14.40;;;;;;;-3.15;83.63;102616.09;5108382;28;20048;-50
2022/12/18 04:21:38;;;;;;;21.35;14.10;;;;;;;-3.20;83.62;102616.50;5074534;28;20131;-53
2022/12/18 04:24:06;;;;;;;21.75;15.45;;;;;;;-3.23;84.31;102614.94;5087689;28;20059;-51
2022/12/18 04:26:36;;;;;;;21.10;14.07;;;;;;;-3.17;85.05;102620.75;5084243;28;20399;-51
2022/12/18 04:29:16;;;;;;;19.58;13.15;;;;;;;-3.08;84.83;102618.13;5091497;28;20039;-54
2022/12/18 04:31:44;;;;;;;20.98;14.20;;;;;;;-3.05;84.31;102612.53;5088568;28;20554;-54
2022/12/18 04:34:11;;;;;;;20.75;14.00;;;;;;;-3.08;83.86;102607.47;5087079;28;20028;-51
2022/12/18 04:36:47;;;;;;;20.77;14.25;;;;;;;-3.13;84.00;102599.00;5091181;28;20051;-51
2022/12/18 04:39:15;;;;;;;23.50;14.18;;;;;;;-3.13;84.14;102607.00;5090931;28;20508;-52
2022/12/18 04:41:43;;;;;;;20.15;13.80;;;;;;;-3.14;84.07;102607.97;5094705;28;20555;-52
2022/12/18 04:44:17;;;;;;;18.15;12.95;;;;;;;-3.18;84.76;102619.03;5095048;28;20051;-52
2022/12/18 04:46:44;;;;;;;18.27;13.27;;;;;;;-3.13;84.83;102624.81;5094887;28;20089;-53
2022/12/18 04:49:12;;;;;;;19.88;13.23;;;;;;;-3.07;84.34;102633.13;5096193;28;20398;-52
2022/12/18 04:51:40;;;;;;;17.77;12.75;;;;;;;-3.06;84.29;102631.31;5094534;28;20093;-52
2022/12/18 04:54:07;;;;;;;18.67;12.95;;;;;;;-3.09;83.98;102632.41;5094859;28;20032;-52
2022/12/18 04:56:35;;;;;;;20.60;12.60;;;;;;;-3.08;83.99;102634.13;5095421;28;20469;-52
2022/12/18 04:59:02;;;;;;;19.48;13.32;;;;;;;-3.14;83.46;102637.31;5082249;28;20055;-53
2022/12/18 05:01:30;;;;;;;19.00;13.02;;;;;;;-3.17;83.97;102644.75;5094993;28;20565;-54
2022/12/18 05:04:02;;;;;;;18.98;13.02;;;;;;;-3.19;83.91;102650.19;5094778;28;20044;-52
2022/12/18 05:06:30;;;;;;;20.45;13.23;;;;;;;-3.21;84.06;102652.16;5094386;28;20089;-52
2022/12/18 05:08:57;;;;;;;19.38;12.98;;;;;;;-3.19;84.50;102652.88;5095818;28;20047;-53
2022/12/18 05:11:25;;;;;;;20.17;13.55;;;;;;;-3.22;83.94;102663.81;5095136;28;20032;-52
2022/12/18 05:13:52;;;;;;;17.05;12.57;;;;;;;-3.23;83.75;102664.75;5095771;28;20082;-51
2022/12/18 05:16:20;;;;;;;17.88;12.20;;;;;;;-3.21;84.34;102668.97;5095707;28;20049;-52
2022/12/18 05:18:48;;;;;;;19.33;13.45;;;;;;;-3.20;84.33;102669.81;5095344;28;20526;-56
2022/12/18 05:21:15;;;;;;;21.73;14.07;;;;;;;-3.33;84.19;102671.84;5093249;28;20052;-52
2022/12/18 05:23:43;;;;;;;20.35;13.70;;;;;;;-3.39;84.83;102672.38;5093816;28;20051;-55
2022/12/18 05:26:16;;;;;;;18.45;12.82;;;;;;;-3.41;84.96;102669.00;5091932;28;20044;-52
2022/12/18 05:28:45;;;;;;;18.45;12.98;;;;;;;-3.48;85.38;102674.84;5092970;28;20066;-51
2022/12/18 05:31:13;;;;;;;21.30;13.18;;;;;;;-3.57;84.87;102664.13;5095299;28;20055;-52
2022/12/18 05:33:41;;;;;;;21.40;13.70;;;;;;;-3.61;85.85;102660.84;5079329;28;20064;-54
2022/12/18 05:36:11;;;;;;;18.10;12.57;;;;;;;-3.61;85.00;102655.53;5091734;28;20044;-53
2022/12/18 05:38:39;;;;;;;20.02;13.15;;;;;;;-3.67;85.10;102656.06;5095049;28;20102;-54
2022/12/18 05:41:08;;;;;;;18.35;12.68;;;;;;;-3.70;85.15;102645.69;5095229;28;20066;-57
2022/12/18 05:43:37;;;;;;;16.55;12.07;;;;;;;-3.70;85.22;102643.84;5093756;28;20040;-56
2022/12/18 05:46:07;;;;;;;19.27;12.38;;;;;;;-3.68;86.16;102646.38;5095819;28;20040;-57
2022/12/18 05:48:35;;;;;;;18.70;12.77;;;;;;;-3.67;85.77;102651.56;5094033;28;20536;-56
2022/12/18 05:51:08;;;;;;;19.73;13.07;;;;;;;-3.70;85.56;102637.69;5094289;28;20493;-53
2022/12/18 05:53:36;;;;;;;17.83;12.25;;;;;;;-3.77;86.50;102642.69;5092835;28;20040;-52
2022/12/18 05:56:07;;;;;;;19.23;12.20;;;;;;;-3.74;86.42;102641.56;5093236;28;20398;-55
2022/12/18 05:58:35;;;;;;;18.70;12.30;;;;;;;-3.74;86.73;102636.25;5094446;28;20047;-51
2022/12/18 06:01:17;;;;;;;19.83;12.50;;;;;;;-3.75;86.34;102631.88;5094527;28;20048;-52
2022/12/18 06:03:45;;;;;;;17.50;11.75;;;;;;;-3.83;86.21;102631.69;5092129;28;20089;-52
2022/12/18 06:06:18;;;;;;;18.60;12.35;;;;;;;-3.89;86.35;102622.41;5094549;28;20082;-56
2022/12/18 06:08:46;;;;;;;19.25;12.73;;;;;;;-3.97;87.40;102620.38;5094093;28;20432;-53
2022/12/18 06:11:18;;;;;;;18.83;12.15;;;;;;;-3.99;87.10;102616.13;5094368;28;20509;-53
2022/12/18 06:13:46;;;;;;;18.08;13.07;;;;;;;-3.96;87.59;102607.91;5093081;28;20152;-54
2022/12/18 06:16:14;;;;;;;18.25;12.57;;;;;;;-3.93;87.35;102611.16;5094410;28;20043;-56
2022/12/18 06:18:41;;;;;;;17.80;12.00;;;;;;;-3.85;88.40;102613.16;5094215;28;20406;-56
2022/12/18 06:21:09;;;;;;;19.38;13.10;;;;;;;-3.80;88.46;102608.31;5094793;28;20478;-55
2022/12/18 06:23:37;;;;;;;17.60;11.75;;;;;;;-3.72;88.59;102610.34;5092596;28;20040;-50
2022/12/18 06:26:09;;;;;;;18.20;12.55;;;;;;;-3.61;87.65;102607.56;5092316;28;20407;-49
2022/12/18 06:28:36;;;;;;;16.95;12.63;;;;;;;-3.56;86.86;102615.19;5092987;28;20413;-49
2022/12/18 06:31:05;;;;;;;19.02;12.32;;;;;;;-3.56;86.66;102608.06;5093852;28;20036;-48
2022/12/18 06:33:33;;;;;;;19.65;12.25;;;;;;;-3.52;87.28;102617.47;5080441;28;20044;-50
2022/12/18 06:36:03;;;;;;;16.75;11.98;;;;;;;-3.50;86.66;102618.19;5092199;28;20109;-50
2022/12/18 06:38:32;;;;;;;18.55;12.60;;;;;;;-3.46;86.95;102614.28;5094143;28;20098;-49
2022/12/18 06:40:59;;;;;;;19.00;12.60;;;;;;;-3.47;85.96;102611.75;5093338;28;20098;-51
2022/12/18 06:43:27;;;;;;;17.25;12.35;;;;;;;-3.50;86.35;102614.66;5092059;28;20036;-48
2022/12/18 06:46:01;;;;;;;18.95;12.20;;;;;;;-3.50;86.08;102612.84;5091886;28;20044;-52
2022/12/18 06:48:29;;;;;;;18.40;12.15;;;;;;;-3.48;86.63;102610.91;5092347;28;20119;-49
2022/12/18 06:50:57;;;;;;;17.02;12.57;;;;;;;-3.43;86.50;102602.50;5093202;28;20048;-48
2022/12/18 06:53:24;;;;;;;18.38;12.50;;;;;;;-3.40;86.42;102590.75;5092459;28;20040;-49
2022/12/18 06:55:52;;;;;;;19.70;12.93;;;;;;;-3.40;85.88;102596.06;5091761;28;20043;-47
2022/12/18 06:58:20;;;;;;;19.08;12.60;;;;;;;-3.43;86.42;102608.69;5080367;28;20032;-50
2022/12/18 07:00:47;;;;;;;17.73;12.73;;;;;;;-3.40;86.16;102591.59;5092919;28;20090;-50
2022/12/18 07:03:15;;;;;;;20.65;12.63;;;;;;;-3.38;86.55;102594.13;5090298;28;20040;-50
2022/12/18 07:05:42;;;;;;;17.45;11.85;;;;;;;-3.39;85.59;102587.09;5092895;28;20575;-49
2022/12/18 07:08:10;;;;;;;19.42;12.95;;;;;;;-3.43;85.92;102584.69;5090648;28;20036;-52
2022/12/18 07:10:42;;;;;;;19.42;13.10;;;;;;;-3.41;85.88;102583.75;5083935;28;20119;-50
2022/12/18 07:13:17;;;;;;;19.23;12.68;;;;;;;-3.39;87.12;102581.75;5089416;28;20159;-49
2022/12/18 07:15:44;;;;;;;18.83;12.93;;;;;;;-3.36;87.07;102584.19;5091612;28;20082;-49
2022/12/18 07:18:12;;;;;;;17.45;12.93;;;;;;;-3.33;86.83;102578.56;5091288;28;20101;-54
2022/12/18 07:20:40;;;;;;;17.63;12.27;;;;;;;-3.27;87.36;102570.03;5073505;28;20043;-51
2022/12/18 07:23:08;;;;;;;18.17;12.75;;;;;;;-3.28;87.17;102566.53;5090676;28;20063;-51
2022/12/18 07:25:36;;;;;;;19.02;12.68;;;;;;;-3.27;86.91;102560.25;5092286;28;20066;-55
2022/12/18 07:28:04;;;;;;;18.33;12.27;;;;;;;-3.23;87.46;102561.63;5086469;28;20402;-51
2022/12/18 07:30:32;;;;;;;17.38;12.43;;;;;;;-3.21;86.95;102557.03;5089804;28;20567;-51
2022/12/18 07:32:59;;;;;;;17.10;11.88;;;;;;;-3.21;87.00;102559.69;5087052;28;20037;-53
2022/12/18 07:35:27;;;;;;;17.98;13.05;;;;;;;-3.20;86.88;102560.53;5090418;28;20044;-52
2022/12/18 07:37:55;;;;;;;20.52;13.48;;;;;;;-3.18;87.45;102553.25;5088072;28;20085;-50
2022/12/18 07:40:22;;;;;;;20.55;12.57;;;;;;;-3.19;86.56;102556.91;5080801;28;20048;-56
2022/12/18 07:42:50;;;;;;;17.35;12.25;;;;;;;-3.22;86.63;102549.19;5091408;28;20494;-52
2022/12/18 07:45:17;;;;;;;19.25;12.80;;;;;;;-3.25;86.03;102536.97;5086393;28;20040;-58
2022/12/18 07:47:45;;;;;;;17.33;11.50;;;;;;;-3.30;87.40;102538.31;5087072;28;20053;-51
2022/12/18 07:50:13;;;;;;;18.55;12.13;;;;;;;-3.36;87.82;102525.56;5089819;28;20452;-52
2022/12/18 07:52:40;;;;;;;17.52;11.70;;;;;;;-3.33;88.01;102527.94;5089740;28;20568;-50
2022/12/18 07:55:08;;;;;;;17.63;11.48;;;;;;;-3.31;88.02;102521.50;5105237;28;20398;-51
2022/12/18 07:57:36;;;;;;;18.17;12.40;;;;;;;-3.27;88.41;102522.94;5090773;28;20036;-54
2022/12/18 08:00:23;;;;;;;16.52;11.88;;;;;;;-3.23;88.43;102513.66;5089694;28;20123;-57
2022/12/18 08:02:51;;;;;;;19.00;12.15;;;;;;;-3.18;88.00;102499.91;5091097;28;20040;-56
2022/12/18 08:05:20;;;;;;;19.17;12.02;;;;;;;-3.15;87.95;102504.13;5090611;28;20035;-57
2022/12/18 08:07:48;;;;;;;18.33;12.43;;;;;;;-3.16;88.57;102505.97;5090564;28;20044;-57
2022/12/18 08:10:15;;;;;;;20.65;12.88;;;;;;;-3.14;88.49;102501.34;5089716;28;20047;-57
2022/12/18 08:12:43;;;;;;;19.92;12.90;;;;;;;-3.21;89.22;102501.03;5092265;28;20048;-49
2022/12/18 08:15:11;;;;;;;21.00;13.30;;;;;;;-3.26;89.54;102502.44;5094448;28;20032;-50
2022/12/18 08:17:38;;;;;;;20.10;13.52;;;;;;;-3.28;90.02;102510.56;5094790;28;20040;-55
2022/12/18 08:20:06;;;;;;;19.23;13.48;;;;;;;-3.31;89.44;102513.50;5096067;28;20048;-57
2022/12/18 08:22:35;;;;;;;19.83;13.75;;;;;;;-3.32;90.33;102516.28;5093791;28;20048;-56
2022/12/18 08:25:04;;;;;;;18.38;13.63;;;;;;;-3.29;91.04;102516.88;5093514;28;20113;-53
2022/12/18 08:27:32;;;;;;;18.63;13.73;;;;;;;-3.26;90.55;102515.75;5093498;28;20109;-52
2022/12/18 08:30:00;;;;;;;22.08;13.75;;;;;;;-3.20;90.98;102531.19;5089703;28;20055;-49
2022/12/18 08:32:28;;;;;;;19.60;13.77;;;;;;;-3.11;91.07;102526.88;5095769;28;20047;-49
2022/12/18 08:34:55;;;;;;;19.02;13.32;;;;;;;-3.02;90.64;102521.59;5094809;28;20494;-51
2022/12/18 08:37:23;;;;;;;20.10;13.90;;;;;;;-2.96;90.32;102516.69;5089837;28;20039;-49
2022/12/18 08:39:51;;;;;;;18.60;12.43;;;;;;;-2.92;89.84;102520.75;5095898;28;20094;-50
2022/12/18 08:45:05;;;;;;;18.88;13.20;;;;;;;-2.84;89.21;102535.13;5095915;28;20098;-49
2022/12/18 08:47:32;;;;;;;19.30;13.15;;;;;;;-2.78;89.20;102528.38;5094922;28;20040;-52
2022/12/18 08:50:00;;;;;;;18.33;12.63;;;;;;;-2.76;88.67;102514.91;5095686;28;20071;-52
2022/12/18 08:52:28;;;;;;;19.13;12.65;;;;;;;-2.76;88.52;102501.56;5095082;28;20048;-47
2022/12/18 08:54:55;;;;;;;18.83;13.07;;;;;;;-2.78;88.78;102485.69;5094069;28;20051;-49
2022/12/18 08:57:23;;;;;;;19.60;12.85;;;;;;;-2.75;88.71;102490.75;5095593;28;20048;-50
2022/12/18 08:59:50;;;;;;;19.45;12.98;;;;;;;-2.76;88.67;102499.75;5095665;28;20040;-51
2022/12/18 09:02:18;;;;;;;18.35;12.65;;;;;;;-2.76;89.23;102499.75;5096311;28;20051;-49
2022/12/18 09:04:48;;;;;;;20.52;13.93;;;;;;;-2.75;88.99;102498.75;5096131;28;20044;-51
2022/12/18 09:07:23;;;;;;;19.52;13.00;;;;;;;-2.75;89.19;102495.25;5095749;28;20055;-49
2022/12/18 09:09:51;;;;;;;19.45;12.90;;;;;;;-2.75;89.91;102492.56;5095663;28;20062;-50
2022/12/18 09:12:18;;;;;;;21.77;13.38;;;;;;;-2.72;89.65;102501.13;5095473;28;20444;-51
2022/12/18 09:14:46;;;;;;;20.00;13.38;;;;;;;-2.66;89.88;102510.41;5095289;28;20497;-49
2022/12/18 09:17:14;;;;;;;19.05;12.63;;;;;;;-2.66;89.70;102502.41;5094251;28;20047;-48
2022/12/18 09:19:42;;;;;;;19.83;13.98;;;;;;;-2.63;89.70;102494.13;5095207;28;20067;-49
2022/12/18 09:22:09;;;;;;;17.90;12.63;;;;;;;-2.61;89.53;102501.00;5095198;28;20048;-51
2022/12/18 09:24:37;;;;;;;20.35;13.07;;;;;;;-2.62;89.70;102507.34;5095210;28;20044;-48
2022/12/18 09:27:05;;;;;;;19.42;13.82;;;;;;;-2.61;89.82;102514.34;5080444;28;20082;-51
2022/12/18 09:29:33;;;;;;;19.75;13.77;;;;;;;-2.55;89.89;102523.59;5095152;28;20044;-51
2022/12/18 09:32:00;;;;;;;18.33;13.35;;;;;;;-2.50;89.70;102523.19;5093807;28;20044;-50
2022/12/18 09:34:28;;;;;;;18.23;13.15;;;;;;;-2.46;89.73;102527.28;5081866;28;20032;-52
2022/12/18 09:36:55;;;;;;;22.40;12.95;;;;;;;-2.43;89.43;102519.84;5110809;28;20040;-49
2022/12/18 09:39:23;;;;;;;18.00;12.95;;;;;;;-2.38;89.06;102514.09;5093683;28;20036;-49
2022/12/18 09:41:56;;;;;;;18.17;12.45;;;;;;;-2.35;88.54;102508.47;5093887;28;20052;-55
2022/12/18 09:44:35;;;;;;;18.00;12.98;;;;;;;-2.33;88.95;102490.47;5094029;28;20379;-53
2022/12/18 09:47:30;;;;;;;19.50;12.98;;;;;;;-2.30;88.54;102495.53;5094773;28;20044;-51
2022/12/18 09:50:04;;;;;;;20.00;13.70;;;;;;;-2.31;88.95;102493.81;5082269;28;20067;-48
2022/12/18 09:52:41;;;;;;;19.55;13.38;;;;;;;-2.30;89.33;102484.84;5094208;28;20032;-50
2022/12/18 09:55:11;;;;;;;18.48;12.75;;;;;;;-2.27;89.27;102481.06;5076999;28;20043;-48
2022/12/18 09:57:45;;;;;;;19.55;13.40;;;;;;;-2.28;89.22;102460.69;5076525;28;20498;-51
2022/12/18 10:00:19;;;;;;;20.15;13.35;;;;;;;-2.31;89.71;102456.44;5093500;28;20622;-48
2022/12/18 10:02:47;;;;;;;18.17;12.50;;;;;;;-2.37;89.95;102452.53;5094449;28;20105;-49
2022/12/18 10:05:17;;;;;;;20.67;12.73;;;;;;;-2.35;90.41;102460.41;5094345;28;20040;-49
2022/12/18 10:08:03;;;;;;;20.38;13.57;;;;;;;-2.28;90.52;102456.19;5093539;28;20083;-48
2022/12/18 10:10:37;;;;;;;19.02;12.52;;;;;;;-2.28;90.63;102464.19;5093418;28;20498;-48
2022/12/18 10:13:07;;;;;;;18.83;13.05;;;;;;;-2.28;90.71;102460.69;5094235;28;20040;-50
2022/12/18 10:15:55;;;;;;;18.83;13.48;;;;;;;-2.25;91.25;102469.25;5094214;28;20043;-50
2022/12/18 10:18:37;;;;;;;18.98;13.48;;;;;;;-2.21;91.38;102470.66;5094014;28;20318;-49
2022/12/18 10:21:11;;;;;;;18.42;13.63;;;;;;;-2.17;90.86;102464.00;5094396;28;20394;-48
2022/12/18 10:24:04;;;;;;;19.23;13.43;;;;;;;-2.12;90.93;102466.25;5092583;28;20040;-51
2022/12/18 10:26:32;;;;;;;19.52;13.75;;;;;;;-2.07;90.50;102453.31;5092905;28;20067;-49
2022/12/18 10:29:00;;;;;;;20.25;14.32;;;;;;;-2.03;90.12;102459.22;5094004;28;20482;-52
2022/12/18 10:31:32;;;;;;;18.58;13.27;;;;;;;-2.00;90.50;102459.75;5082072;28;20040;-51
2022/12/18 10:34:00;;;;;;;20.08;13.50;;;;;;;-1.96;90.51;102455.81;5079453;28;20093;-52
2022/12/18 10:36:27;;;;;;;19.92;13.35;;;;;;;-1.94;89.88;102455.69;5094070;28;20043;-50
2022/12/18 10:39:18;;;;;;;19.08;13.23;;;;;;;-1.94;89.80;102443.16;5092716;28;20047;-51
2022/12/18 10:41:46;;;;;;;21.75;13.70;;;;;;;-1.92;89.91;102443.03;5093679;28;20551;-51
2022/12/18 10:44:27;;;;;;;20.23;13.30;;;;;;;-1.87;90.03;102434.59;5092385;28;20065;-51
2022/12/18 10:47:02;;;;;;;21.45;13.60;;;;;;;-1.82;90.21;102421.63;5094429;28;20044;-50
2022/12/18 10:49:50;;;;;;;19.67;13.50;;;;;;;-1.83;89.79;102428.78;5094788;28;20498;-51
2022/12/18 10:52:23;;;;;;;20.55;13.35;;;;;;;-1.80;90.00;102411.66;5092438;28;20067;-53
2022/12/18 10:54:58;;;;;;;18.95;13.95;;;;;;;-1.78;90.11;102401.63;5092697;28;20058;-47
2022/12/18 10:57:40;;;;;;;19.02;12.75;;;;;;;-1.76;90.33;102396.97;5073719;28;20075;-47
2022/12/18 11:00:27;;;;;;;17.85;13.38;;;;;;;-1.72;90.01;102396.53;5093467;28;20090;-52
2022/12/18 11:02:56;;;;;;;20.92;13.05;;;;;;;-1.73;89.85;102389.53;5092327;28;20036;-50
2022/12/18 11:05:33;;;;;;;18.42;13.15;;;;;;;-1.69;90.27;102387.38;5092329;28;20044;-50
2022/12/18 11:08:02;;;;;;;19.40;12.82;;;;;;;-1.66;90.17;102383.56;5092351;28;20043;-51
2022/12/18 11:10:47;;;;;;;19.98;13.68;;;;;;;-1.66;88.95;102387.09;5091052;28;20505;-50
2022/12/18 11:13:21;;;;;;;18.85;12.80;;;;;;;-1.66;89.56;102391.59;5090539;28;20044;-54
2022/12/18 11:15:49;;;;;;;18.95;12.98;;;;;;;-1.66;89.57;102376.41;5090737;28;20055;-51
2022/12/18 11:18:26;;;;;;;17.70;12.73;;;;;;;-1.67;89.69;102377.38;5091143;28;20032;-49
2022/12/18 11:21:07;;;;;;;20.65;14.13;;;;;;;-1.64;90.07;102386.94;5091606;28;20424;-49
2022/12/18 11:23:36;;;;;;;20.95;13.70;;;;;;;-1.61;89.91;102389.31;5092297;28;20311;-52
2022/12/18 11:26:05;;;;;;;19.70;12.95;;;;;;;-1.58;90.28;102383.69;5091067;28;20071;-50
2022/12/18 11:28:40;;;;;;;18.77;13.68;;;;;;;-1.56;90.16;102371.03;5088945;28;20036;-52
2022/12/18 11:31:21;;;;;;;19.70;13.80;;;;;;;-1.54;89.94;102369.88;5091028;28;20040;-49
2022/12/18 11:33:59;;;;;;;22.15;13.75;;;;;;;-1.49;89.33;102366.75;5091971;28;20040;-50
2022/12/18 11:36:47;;;;;;;19.70;13.27;;;;;;;-1.50;88.76;102370.41;5091259;28;20493;-50
2022/12/18 11:39:31;;;;;;;18.42;12.88;;;;;;;-1.46;88.76;102371.78;5089271;28;20040;-55
2022/12/18 11:42:31;;;;;;;21.90;13.20;;;;;;;-1.41;88.44;102372.19;5090684;28;20086;-51